sensor_id;sensor_type;location;lat;lon;timestamp;P1;durP1;ratioP1;P2;durP2;ratioP2
45208;SDS011;30951;43.994;26.260;2023-03-02T00:04:39;32.00;;;19.38;;
45208;SDS011;30951;43.994;26.260;2023-03-02T00:07:10;37.33;;;20.02;;
45208;SDS011;30951;43.994;26.260;2023-03-02T00:09:37;35.25;;;19.45;;
45208;SDS011;30951;43.994;26.260;2023-03-02T00:12:03;38.20;;;19.70;;
45208;SDS011;30951;43.994;26.260;2023-03-02T00:14:29;32.05;;;19.10;;
45208;SDS011;30951;43.994;26.260;2023-03-02T00:16:55;31.92;;;19.38;;
45208;SDS011;30951;43.994;26.260;2023-03-02T00:19:20;34.97;;;20.17;;
45208;SDS011;30951;43.994;26.260;2023-03-02T00:21:46;33.65;;;20.23;;
45208;SDS011;30951;43.994;26.260;2023-03-02T00:24:11;30.77;;;18.52;;
45208;SDS011;30951;43.994;26.260;2023-03-02T00:26:39;35.00;;;19.65;;
45208;SDS011;30951;43.994;26.260;2023-03-02T00:29:05;35.60;;;21.23;;
45208;SDS011;30951;43.994;26.260;2023-03-02T00:31:30;32.88;;;20.50;;
45208;SDS011;30951;43.994;26.260;2023-03-02T00:33:56;38.88;;;23.65;;
45208;SDS011;30951;43.994;26.260;2023-03-02T00:36:22;36.03;;;21.42;;
45208;SDS011;30951;43.994;26.260;2023-03-02T00:38:48;34.38;;;20.73;;
45208;SDS011;30951;43.994;26.260;2023-03-02T00:41:16;39.67;;;21.85;;
45208;SDS011;30951;43.994;26.260;2023-03-02T00:43:42;34.75;;;21.13;;
45208;SDS011;30951;43.994;26.260;2023-03-02T00:46:11;38.35;;;21.42;;
45208;SDS011;30951;43.994;26.260;2023-03-02T00:51:04;34.75;;;19.58;;
45208;SDS011;30951;43.994;26.260;2023-03-02T00:53:30;39.88;;;22.27;;
45208;SDS011;30951;43.994;26.260;2023-03-02T00:55:56;36.10;;;22.83;;
45208;SDS011;30951;43.994;26.260;2023-03-02T00:58:22;38.28;;;23.50;;
45208;SDS011;30951;43.994;26.260;2023-03-02T01:00:47;38.88;;;24.65;;
45208;SDS011;30951;43.994;26.260;2023-03-02T01:03:13;43.15;;;25.75;;
45208;SDS011;30951;43.994;26.260;2023-03-02T01:05:38;45.05;;;24.10;;
45208;SDS011;30951;43.994;26.260;2023-03-02T01:08:04;46.78;;;26.10;;
45208;SDS011;30951;43.994;26.260;2023-03-02T01:10:30;49.28;;;27.17;;
45208;SDS011;30951;43.994;26.260;2023-03-02T01:12:56;50.30;;;25.92;;
45208;SDS011;30951;43.994;26.260;2023-03-02T01:15:21;49.38;;;25.67;;
45208;SDS011;30951;43.994;26.260;2023-03-02T01:17:47;49.47;;;27.98;;
45208;SDS011;30951;43.994;26.260;2023-03-02T01:20:12;45.47;;;26.42;;
45208;SDS011;30951;43.994;26.260;2023-03-02T01:22:38;43.88;;;25.05;;
45208;SDS011;30951;43.994;26.260;2023-03-02T01:25:04;43.08;;;26.27;;
45208;SDS011;30951;43.994;26.260;2023-03-02T01:27:30;49.78;;;27.65;;
45208;SDS011;30951;43.994;26.260;2023-03-02T01:29:55;44.28;;;26.77;;
45208;SDS011;30951;43.994;26.260;2023-03-02T01:32:21;40.67;;;25.55;;
45208;SDS011;30951;43.994;26.260;2023-03-02T01:34:46;43.55;;;25.95;;
45208;SDS011;30951;43.994;26.260;2023-03-02T01:37:12;47.22;;;27.92;;
45208;SDS011;30951;43.994;26.260;2023-03-02T01:39:37;44.55;;;26.40;;
45208;SDS011;30951;43.994;26.260;2023-03-02T01:42:03;44.63;;;27.17;;
45208;SDS011;30951;43.994;26.260;2023-03-02T01:47:13;45.58;;;24.02;;
45208;SDS011;30951;43.994;26.260;2023-03-02T01:49:40;45.37;;;25.50;;
45208;SDS011;30951;43.994;26.260;2023-03-02T01:52:08;42.42;;;24.38;;
45208;SDS011;30951;43.994;26.260;2023-03-02T01:54:36;48.35;;;26.60;;
45208;SDS011;30951;43.994;26.260;2023-03-02T01:57:02;44.38;;;26.15;;
45208;SDS011;30951;43.994;26.260;2023-03-02T01:59:29;45.45;;;27.30;;
45208;SDS011;30951;43.994;26.260;2023-03-02T02:01:57;42.60;;;25.13;;
45208;SDS011;30951;43.994;26.260;2023-03-02T02:04:24;45.90;;;26.77;;
45208;SDS011;30951;43.994;26.260;2023-03-02T02:06:53;53.00;;;28.90;;
45208;SDS011;30951;43.994;26.260;2023-03-02T02:09:21;39.20;;;22.60;;
45208;SDS011;30951;43.994;26.260;2023-03-02T02:11:48;50.90;;;27.10;;
45208;SDS011;30951;43.994;26.260;2023-03-02T02:14:13;49.00;;;26.95;;
45208;SDS011;30951;43.994;26.260;2023-03-02T02:16:39;49.38;;;26.77;;
45208;SDS011;30951;43.994;26.260;2023-03-02T02:21:57;46.13;;;26.95;;
45208;SDS011;30951;43.994;26.260;2023-03-02T02:24:39;46.28;;;28.48;;
45208;SDS011;30951;43.994;26.260;2023-03-02T02:27:10;43.28;;;24.15;;
45208;SDS011;30951;43.994;26.260;2023-03-02T02:29:37;44.15;;;26.35;;
45208;SDS011;30951;43.994;26.260;2023-03-02T02:32:16;39.55;;;23.83;;
45208;SDS011;30951;43.994;26.260;2023-03-02T02:34:49;42.55;;;25.48;;
45208;SDS011;30951;43.994;26.260;2023-03-02T02:37:38;44.92;;;25.20;;
45208;SDS011;30951;43.994;26.260;2023-03-02T02:40:06;45.13;;;25.05;;
45208;SDS011;30951;43.994;26.260;2023-03-02T02:42:42;45.15;;;25.02;;
45208;SDS011;30951;43.994;26.260;2023-03-02T02:45:17;45.30;;;28.05;;
45208;SDS011;30951;43.994;26.260;2023-03-02T02:47:50;47.05;;;29.00;;
45208;SDS011;30951;43.994;26.260;2023-03-02T02:50:32;44.22;;;27.80;;
45208;SDS011;30951;43.994;26.260;2023-03-02T02:53:02;43.03;;;26.38;;
45208;SDS011;30951;43.994;26.260;2023-03-02T02:55:31;40.45;;;26.20;;
45208;SDS011;30951;43.994;26.260;2023-03-02T02:57:57;46.63;;;25.80;;
45208;SDS011;30951;43.994;26.260;2023-03-02T03:00:24;53.05;;;25.58;;
45208;SDS011;30951;43.994;26.260;2023-03-02T03:02:51;50.08;;;28.02;;
45208;SDS011;30951;43.994;26.260;2023-03-02T03:05:19;42.17;;;27.98;;
45208;SDS011;30951;43.994;26.260;2023-03-02T03:07:45;39.80;;;25.80;;
45208;SDS011;30951;43.994;26.260;2023-03-02T03:10:25;48.03;;;28.20;;
45208;SDS011;30951;43.994;26.260;2023-03-02T03:12:53;47.67;;;27.40;;
45208;SDS011;30951;43.994;26.260;2023-03-02T03:15:19;50.03;;;28.23;;
45208;SDS011;30951;43.994;26.260;2023-03-02T03:17:57;43.92;;;24.35;;
45208;SDS011;30951;43.994;26.260;2023-03-02T03:20:24;44.17;;;27.00;;
45208;SDS011;30951;43.994;26.260;2023-03-02T03:22:50;49.63;;;28.13;;
45208;SDS011;30951;43.994;26.260;2023-03-02T03:25:20;48.33;;;28.15;;
45208;SDS011;30951;43.994;26.260;2023-03-02T03:27:46;49.65;;;26.38;;
45208;SDS011;30951;43.994;26.260;2023-03-02T03:30:12;44.03;;;26.48;;
45208;SDS011;30951;43.994;26.260;2023-03-02T03:32:39;49.25;;;28.05;;
45208;SDS011;30951;43.994;26.260;2023-03-02T03:35:05;51.25;;;29.23;;
45208;SDS011;30951;43.994;26.260;2023-03-02T03:37:33;49.60;;;29.73;;
45208;SDS011;30951;43.994;26.260;2023-03-02T03:39:59;54.55;;;29.10;;
45208;SDS011;30951;43.994;26.260;2023-03-02T03:42:24;52.35;;;28.20;;
45208;SDS011;30951;43.994;26.260;2023-03-02T03:44:50;49.80;;;28.95;;
45208;SDS011;30951;43.994;26.260;2023-03-02T03:47:16;53.83;;;29.75;;
45208;SDS011;30951;43.994;26.260;2023-03-02T03:49:41;51.55;;;31.85;;
45208;SDS011;30951;43.994;26.260;2023-03-02T03:52:07;52.15;;;30.23;;
45208;SDS011;30951;43.994;26.260;2023-03-02T03:54:32;51.60;;;29.73;;
45208;SDS011;30951;43.994;26.260;2023-03-02T03:56:58;50.47;;;28.33;;
45208;SDS011;30951;43.994;26.260;2023-03-02T03:59:23;53.10;;;29.90;;
45208;SDS011;30951;43.994;26.260;2023-03-02T04:01:51;47.38;;;28.98;;
45208;SDS011;30951;43.994;26.260;2023-03-02T04:04:24;50.80;;;29.10;;
45208;SDS011;30951;43.994;26.260;2023-03-02T04:06:52;49.60;;;26.73;;
45208;SDS011;30951;43.994;26.260;2023-03-02T04:09:18;55.30;;;30.55;;
45208;SDS011;30951;43.994;26.260;2023-03-02T04:11:44;52.58;;;26.85;;
45208;SDS011;30951;43.994;26.260;2023-03-02T04:14:11;52.08;;;27.92;;
45208;SDS011;30951;43.994;26.260;2023-03-02T04:16:37;47.75;;;25.60;;
45208;SDS011;30951;43.994;26.260;2023-03-02T04:19:04;57.70;;;30.75;;
45208;SDS011;30951;43.994;26.260;2023-03-02T04:21:38;49.75;;;28.30;;
45208;SDS011;30951;43.994;26.260;2023-03-02T04:24:06;51.97;;;27.15;;
45208;SDS011;30951;43.994;26.260;2023-03-02T04:26:33;43.75;;;25.60;;
45208;SDS011;30951;43.994;26.260;2023-03-02T04:28:59;51.65;;;27.25;;
45208;SDS011;30951;43.994;26.260;2023-03-02T04:31:24;48.15;;;27.88;;
45208;SDS011;30951;43.994;26.260;2023-03-02T04:33:50;42.63;;;25.38;;
45208;SDS011;30951;43.994;26.260;2023-03-02T04:36:15;49.72;;;27.70;;
45208;SDS011;30951;43.994;26.260;2023-03-02T04:38:41;55.85;;;30.17;;
45208;SDS011;30951;43.994;26.260;2023-03-02T04:41:07;51.40;;;29.48;;
45208;SDS011;30951;43.994;26.260;2023-03-02T04:43:32;53.40;;;30.80;;
45208;SDS011;30951;43.994;26.260;2023-03-02T04:45:58;55.70;;;31.13;;
45208;SDS011;30951;43.994;26.260;2023-03-02T04:48:23;50.60;;;30.52;;
45208;SDS011;30951;43.994;26.260;2023-03-02T04:50:49;55.88;;;32.55;;
45208;SDS011;30951;43.994;26.260;2023-03-02T04:53:15;56.08;;;33.53;;
45208;SDS011;30951;43.994;26.260;2023-03-02T04:55:40;56.03;;;30.98;;
45208;SDS011;30951;43.994;26.260;2023-03-02T04:58:06;51.22;;;28.42;;
45208;SDS011;30951;43.994;26.260;2023-03-02T05:00:32;49.97;;;29.92;;
45208;SDS011;30951;43.994;26.260;2023-03-02T05:03:00;52.20;;;31.10;;
45208;SDS011;30951;43.994;26.260;2023-03-02T05:05:26;53.55;;;28.70;;
45208;SDS011;30951;43.994;26.260;2023-03-02T05:07:52;59.20;;;30.60;;
45208;SDS011;30951;43.994;26.260;2023-03-02T05:10:18;49.85;;;30.08;;
45208;SDS011;30951;43.994;26.260;2023-03-02T05:12:45;52.20;;;28.85;;
45208;SDS011;30951;43.994;26.260;2023-03-02T05:15:27;50.40;;;29.48;;
45208;SDS011;30951;43.994;26.260;2023-03-02T05:17:54;48.50;;;24.88;;
45208;SDS011;30951;43.994;26.260;2023-03-02T05:20:20;54.55;;;29.27;;
45208;SDS011;30951;43.994;26.260;2023-03-02T05:22:52;53.25;;;28.55;;
45208;SDS011;30951;43.994;26.260;2023-03-02T05:25:19;61.75;;;33.03;;
45208;SDS011;30951;43.994;26.260;2023-03-02T05:27:44;55.10;;;29.67;;
45208;SDS011;30951;43.994;26.260;2023-03-02T05:30:10;50.50;;;30.02;;
45208;SDS011;30951;43.994;26.260;2023-03-02T05:32:36;48.88;;;28.00;;
45208;SDS011;30951;43.994;26.260;2023-03-02T05:35:02;49.15;;;29.70;;
45208;SDS011;30951;43.994;26.260;2023-03-02T05:37:27;45.08;;;25.45;;
45208;SDS011;30951;43.994;26.260;2023-03-02T05:39:53;46.60;;;27.25;;
45208;SDS011;30951;43.994;26.260;2023-03-02T05:42:18;46.30;;;26.92;;
45208;SDS011;30951;43.994;26.260;2023-03-02T05:44:44;47.05;;;27.15;;
45208;SDS011;30951;43.994;26.260;2023-03-02T05:47:09;54.13;;;29.88;;
45208;SDS011;30951;43.994;26.260;2023-03-02T05:49:35;54.55;;;30.38;;
45208;SDS011;30951;43.994;26.260;2023-03-02T05:52:01;55.42;;;29.73;;
45208;SDS011;30951;43.994;26.260;2023-03-02T05:54:26;52.75;;;29.45;;
45208;SDS011;30951;43.994;26.260;2023-03-02T05:56:52;46.25;;;25.80;;
45208;SDS011;30951;43.994;26.260;2023-03-02T05:59:17;55.13;;;29.45;;
45208;SDS011;30951;43.994;26.260;2023-03-02T06:01:43;49.42;;;28.60;;
45208;SDS011;30951;43.994;26.260;2023-03-02T06:04:08;45.75;;;26.08;;
45208;SDS011;30951;43.994;26.260;2023-03-02T06:06:34;46.58;;;25.50;;
45208;SDS011;30951;43.994;26.260;2023-03-02T06:08:59;49.85;;;26.52;;
45208;SDS011;30951;43.994;26.260;2023-03-02T06:11:25;47.30;;;28.23;;
45208;SDS011;30951;43.994;26.260;2023-03-02T06:13:50;49.67;;;27.35;;
45208;SDS011;30951;43.994;26.260;2023-03-02T06:16:15;50.20;;;27.88;;
45208;SDS011;30951;43.994;26.260;2023-03-02T06:18:41;48.42;;;27.20;;
45208;SDS011;30951;43.994;26.260;2023-03-02T06:21:07;49.13;;;28.73;;
45208;SDS011;30951;43.994;26.260;2023-03-02T06:23:32;51.50;;;24.27;;
45208;SDS011;30951;43.994;26.260;2023-03-02T06:25:58;49.53;;;29.52;;
45208;SDS011;30951;43.994;26.260;2023-03-02T06:28:23;49.15;;;28.15;;
45208;SDS011;30951;43.994;26.260;2023-03-02T06:30:50;49.78;;;27.10;;
45208;SDS011;30951;43.994;26.260;2023-03-02T06:33:16;47.05;;;25.40;;
45208;SDS011;30951;43.994;26.260;2023-03-02T06:35:44;50.65;;;28.58;;
45208;SDS011;30951;43.994;26.260;2023-03-02T06:38:10;49.28;;;26.10;;
45208;SDS011;30951;43.994;26.260;2023-03-02T06:40:35;52.25;;;27.60;;
45208;SDS011;30951;43.994;26.260;2023-03-02T06:43:01;52.50;;;30.08;;
45208;SDS011;30951;43.994;26.260;2023-03-02T06:45:26;47.13;;;26.70;;
45208;SDS011;30951;43.994;26.260;2023-03-02T06:47:53;50.17;;;28.20;;
45208;SDS011;30951;43.994;26.260;2023-03-02T06:50:19;47.58;;;27.67;;
45208;SDS011;30951;43.994;26.260;2023-03-02T06:52:44;49.33;;;28.42;;
45208;SDS011;30951;43.994;26.260;2023-03-02T06:55:10;55.13;;;29.00;;
45208;SDS011;30951;43.994;26.260;2023-03-02T06:57:35;53.78;;;29.17;;
45208;SDS011;30951;43.994;26.260;2023-03-02T07:00:03;53.65;;;30.23;;
45208;SDS011;30951;43.994;26.260;2023-03-02T07:02:34;57.22;;;29.00;;
45208;SDS011;30951;43.994;26.260;2023-03-02T07:05:00;53.28;;;30.85;;
45208;SDS011;30951;43.994;26.260;2023-03-02T07:07:26;73.88;;;38.25;;
45208;SDS011;30951;43.994;26.260;2023-03-02T07:09:51;76.95;;;41.03;;
45208;SDS011;30951;43.994;26.260;2023-03-02T07:12:17;101.60;;;49.50;;
45208;SDS011;30951;43.994;26.260;2023-03-02T07:14:42;172.63;;;73.90;;
45208;SDS011;30951;43.994;26.260;2023-03-02T07:17:08;66.35;;;37.55;;
45208;SDS011;30951;43.994;26.260;2023-03-02T07:19:33;51.58;;;30.30;;
45208;SDS011;30951;43.994;26.260;2023-03-02T07:21:59;53.28;;;29.13;;
45208;SDS011;30951;43.994;26.260;2023-03-02T07:24:24;42.03;;;23.00;;
45208;SDS011;30951;43.994;26.260;2023-03-02T07:26:50;49.03;;;25.67;;
45208;SDS011;30951;43.994;26.260;2023-03-02T07:29:16;52.75;;;28.10;;
45208;SDS011;30951;43.994;26.260;2023-03-02T07:31:41;56.15;;;28.50;;
45208;SDS011;30951;43.994;26.260;2023-03-02T07:34:08;58.58;;;28.27;;
45208;SDS011;30951;43.994;26.260;2023-03-02T07:36:34;46.65;;;27.30;;
45208;SDS011;30951;43.994;26.260;2023-03-02T07:39:01;57.97;;;29.92;;
45208;SDS011;30951;43.994;26.260;2023-03-02T07:41:27;56.15;;;30.95;;
45208;SDS011;30951;43.994;26.260;2023-03-02T07:43:52;57.30;;;30.88;;
45208;SDS011;30951;43.994;26.260;2023-03-02T07:46:18;50.97;;;26.95;;
45208;SDS011;30951;43.994;26.260;2023-03-02T07:48:43;57.78;;;31.50;;
45208;SDS011;30951;43.994;26.260;2023-03-02T07:51:09;53.40;;;29.23;;
45208;SDS011;30951;43.994;26.260;2023-03-02T07:53:34;52.42;;;29.05;;
45208;SDS011;30951;43.994;26.260;2023-03-02T07:56:04;52.63;;;28.58;;
45208;SDS011;30951;43.994;26.260;2023-03-02T07:58:30;60.72;;;30.33;;
45208;SDS011;30951;43.994;26.260;2023-03-02T08:00:56;59.17;;;30.88;;
45208;SDS011;30951;43.994;26.260;2023-03-02T08:03:22;46.92;;;27.55;;
45208;SDS011;30951;43.994;26.260;2023-03-02T08:05:47;56.47;;;31.55;;
45208;SDS011;30951;43.994;26.260;2023-03-02T08:08:12;53.47;;;30.65;;
45208;SDS011;30951;43.994;26.260;2023-03-02T08:10:38;46.67;;;28.30;;
45208;SDS011;30951;43.994;26.260;2023-03-02T08:13:03;53.75;;;29.10;;
45208;SDS011;30951;43.994;26.260;2023-03-02T08:15:29;54.80;;;29.75;;
45208;SDS011;30951;43.994;26.260;2023-03-02T08:17:54;53.47;;;31.48;;
45208;SDS011;30951;43.994;26.260;2023-03-02T08:20:20;50.90;;;27.70;;
45208;SDS011;30951;43.994;26.260;2023-03-02T08:22:45;52.10;;;30.27;;
45208;SDS011;30951;43.994;26.260;2023-03-02T08:25:11;50.22;;;29.23;;
45208;SDS011;30951;43.994;26.260;2023-03-02T08:27:36;48.13;;;28.80;;
45208;SDS011;30951;43.994;26.260;2023-03-02T08:30:04;53.15;;;29.38;;
45208;SDS011;30951;43.994;26.260;2023-03-02T08:32:32;51.72;;;29.73;;
45208;SDS011;30951;43.994;26.260;2023-03-02T08:34:58;52.55;;;28.05;;
45208;SDS011;30951;43.994;26.260;2023-03-02T08:37:23;50.40;;;28.75;;
45208;SDS011;30951;43.994;26.260;2023-03-02T08:39:49;53.70;;;29.60;;
45208;SDS011;30951;43.994;26.260;2023-03-02T08:42:15;51.08;;;29.77;;
45208;SDS011;30951;43.994;26.260;2023-03-02T08:44:42;46.00;;;27.10;;
45208;SDS011;30951;43.994;26.260;2023-03-02T08:47:07;52.70;;;27.88;;
45208;SDS011;30951;43.994;26.260;2023-03-02T08:49:33;52.30;;;28.98;;
45208;SDS011;30951;43.994;26.260;2023-03-02T08:51:58;54.15;;;30.23;;
45208;SDS011;30951;43.994;26.260;2023-03-02T08:54:24;47.95;;;27.50;;
45208;SDS011;30951;43.994;26.260;2023-03-02T08:56:51;48.97;;;28.95;;
45208;SDS011;30951;43.994;26.260;2023-03-02T08:59:16;52.28;;;31.23;;
45208;SDS011;30951;43.994;26.260;2023-03-02T09:01:42;53.17;;;31.42;;
45208;SDS011;30951;43.994;26.260;2023-03-02T09:04:09;54.22;;;29.40;;
45208;SDS011;30951;43.994;26.260;2023-03-02T09:06:36;51.03;;;29.15;;
45208;SDS011;30951;43.994;26.260;2023-03-02T09:09:05;54.90;;;31.23;;
45208;SDS011;30951;43.994;26.260;2023-03-02T09:11:32;54.45;;;30.65;;
45208;SDS011;30951;43.994;26.260;2023-03-02T09:13:57;54.40;;;31.73;;
45208;SDS011;30951;43.994;26.260;2023-03-02T09:16:23;61.85;;;33.35;;
45208;SDS011;30951;43.994;26.260;2023-03-02T09:18:50;126.45;;;63.40;;
45208;SDS011;30951;43.994;26.260;2023-03-02T09:21:15;83.95;;;47.72;;
45208;SDS011;30951;43.994;26.260;2023-03-02T09:23:41;62.05;;;34.13;;
45208;SDS011;30951;43.994;26.260;2023-03-02T09:26:07;72.28;;;40.40;;
45208;SDS011;30951;43.994;26.260;2023-03-02T09:28:32;57.15;;;30.30;;
45208;SDS011;30951;43.994;26.260;2023-03-02T09:30:59;54.75;;;32.33;;
45208;SDS011;30951;43.994;26.260;2023-03-02T09:33:26;58.17;;;32.38;;
45208;SDS011;30951;43.994;26.260;2023-03-02T09:35:51;57.63;;;32.80;;
45208;SDS011;30951;43.994;26.260;2023-03-02T09:38:17;45.47;;;27.75;;
45208;SDS011;30951;43.994;26.260;2023-03-02T09:46:31;48.65;;;29.90;;
45208;SDS011;30951;43.994;26.260;2023-03-02T09:52:09;61.92;;;31.00;;
45208;SDS011;30951;43.994;26.260;2023-03-02T09:54:41;47.88;;;29.35;;
45208;SDS011;30951;43.994;26.260;2023-03-02T10:00:05;52.75;;;29.05;;
45208;SDS011;30951;43.994;26.260;2023-03-02T10:02:36;56.22;;;30.70;;
45208;SDS011;30951;43.994;26.260;2023-03-02T10:05:12;56.90;;;32.60;;
45208;SDS011;30951;43.994;26.260;2023-03-02T10:07:44;49.88;;;28.23;;
45208;SDS011;30951;43.994;26.260;2023-03-02T10:12:45;49.75;;;28.08;;
45208;SDS011;30951;43.994;26.260;2023-03-02T10:15:55;49.45;;;28.27;;
45208;SDS011;30951;43.994;26.260;2023-03-02T10:21:03;45.67;;;26.70;;
45208;SDS011;30951;43.994;26.260;2023-03-02T10:28:48;46.70;;;27.20;;
45208;SDS011;30951;43.994;26.260;2023-03-02T10:31:37;45.30;;;26.25;;
45208;SDS011;30951;43.994;26.260;2023-03-02T10:34:03;44.85;;;25.20;;
45208;SDS011;30951;43.994;26.260;2023-03-02T10:36:30;42.40;;;24.55;;
45208;SDS011;30951;43.994;26.260;2023-03-02T10:38:59;42.08;;;24.10;;
45208;SDS011;30951;43.994;26.260;2023-03-02T10:41:38;52.00;;;27.50;;
45208;SDS011;30951;43.994;26.260;2023-03-02T10:44:37;42.78;;;25.48;;
45208;SDS011;30951;43.994;26.260;2023-03-02T10:47:05;44.50;;;23.30;;
45208;SDS011;30951;43.994;26.260;2023-03-02T10:49:33;41.75;;;24.02;;
45208;SDS011;30951;43.994;26.260;2023-03-02T10:54:30;37.92;;;23.05;;
45208;SDS011;30951;43.994;26.260;2023-03-02T10:56:58;40.95;;;24.30;;
45208;SDS011;30951;43.994;26.260;2023-03-02T10:59:42;37.42;;;21.92;;
45208;SDS011;30951;43.994;26.260;2023-03-02T11:02:14;38.90;;;23.83;;
45208;SDS011;30951;43.994;26.260;2023-03-02T11:04:41;59.00;;;30.38;;
45208;SDS011;30951;43.994;26.260;2023-03-02T11:07:08;38.97;;;23.98;;
45208;SDS011;30951;43.994;26.260;2023-03-02T11:09:37;46.08;;;27.38;;
45208;SDS011;30951;43.994;26.260;2023-03-02T11:12:03;39.30;;;25.17;;
45208;SDS011;30951;43.994;26.260;2023-03-02T11:14:29;61.92;;;33.42;;
45208;SDS011;30951;43.994;26.260;2023-03-02T11:16:54;43.60;;;25.05;;
45208;SDS011;30951;43.994;26.260;2023-03-02T11:22:05;33.13;;;21.15;;
45208;SDS011;30951;43.994;26.260;2023-03-02T11:24:40;57.95;;;32.35;;
45208;SDS011;30951;43.994;26.260;2023-03-02T11:27:11;47.35;;;27.23;;
45208;SDS011;30951;43.994;26.260;2023-03-02T11:35:00;38.75;;;23.75;;
45208;SDS011;30951;43.994;26.260;2023-03-02T11:37:29;48.22;;;27.02;;
45208;SDS011;30951;43.994;26.260;2023-03-02T11:40:08;47.05;;;24.30;;
45208;SDS011;30951;43.994;26.260;2023-03-02T11:47:37;53.88;;;26.55;;
45208;SDS011;30951;43.994;26.260;2023-03-02T11:50:04;35.97;;;20.85;;
45208;SDS011;30951;43.994;26.260;2023-03-02T11:52:32;68.60;;;31.42;;
45208;SDS011;30951;43.994;26.260;2023-03-02T11:55:11;43.92;;;25.23;;
45208;SDS011;30951;43.994;26.260;2023-03-02T11:57:47;48.05;;;25.20;;
45208;SDS011;30951;43.994;26.260;2023-03-02T12:00:40;86.32;;;42.75;;
45208;SDS011;30951;43.994;26.260;2023-03-02T12:03:52;37.60;;;23.70;;
45208;SDS011;30951;43.994;26.260;2023-03-02T12:10:54;26.58;;;16.90;;
45208;SDS011;30951;43.994;26.260;2023-03-02T12:13:45;36.15;;;22.08;;
45208;SDS011;30951;43.994;26.260;2023-03-02T12:18:58;24.02;;;15.35;;
45208;SDS011;30951;43.994;26.260;2023-03-02T12:21:39;56.22;;;32.50;;
45208;SDS011;30951;43.994;26.260;2023-03-02T12:24:06;35.92;;;21.77;;
45208;SDS011;30951;43.994;26.260;2023-03-02T12:27:02;49.40;;;27.65;;
45208;SDS011;30951;43.994;26.260;2023-03-02T12:45:48;26.45;;;15.65;;
45208;SDS011;30951;43.994;26.260;2023-03-02T12:51:00;21.23;;;12.38;;
45208;SDS011;30951;43.994;26.260;2023-03-02T12:53:28;25.85;;;16.25;;
45208;SDS011;30951;43.994;26.260;2023-03-02T12:55:54;24.92;;;14.93;;
45208;SDS011;30951;43.994;26.260;2023-03-02T12:58:23;25.33;;;16.55;;
45208;SDS011;30951;43.994;26.260;2023-03-02T13:00:56;22.85;;;15.88;;
45208;SDS011;30951;43.994;26.260;2023-03-02T13:05:48;25.95;;;15.93;;
45208;SDS011;30951;43.994;26.260;2023-03-02T13:08:21;30.38;;;17.95;;
45208;SDS011;30951;43.994;26.260;2023-03-02T13:10:53;31.05;;;21.15;;
45208;SDS011;30951;43.994;26.260;2023-03-02T13:13:22;34.20;;;17.05;;
45208;SDS011;30951;43.994;26.260;2023-03-02T13:15:53;23.27;;;15.35;;
45208;SDS011;30951;43.994;26.260;2023-03-02T13:18:20;27.27;;;18.02;;
45208;SDS011;30951;43.994;26.260;2023-03-02T13:20:46;51.90;;;24.90;;
45208;SDS011;30951;43.994;26.260;2023-03-02T13:23:12;32.65;;;19.45;;
45208;SDS011;30951;43.994;26.260;2023-03-02T13:25:46;25.50;;;16.73;;
45208;SDS011;30951;43.994;26.260;2023-03-02T13:28:26;34.40;;;18.17;;
45208;SDS011;30951;43.994;26.260;2023-03-02T13:31:13;34.00;;;20.00;;
45208;SDS011;30951;43.994;26.260;2023-03-02T13:33:45;28.50;;;16.55;;
45208;SDS011;30951;43.994;26.260;2023-03-02T13:36:21;33.60;;;19.98;;
45208;SDS011;30951;43.994;26.260;2023-03-02T13:38:54;29.77;;;17.10;;
45208;SDS011;30951;43.994;26.260;2023-03-02T13:41:22;68.72;;;31.20;;
45208;SDS011;30951;43.994;26.260;2023-03-02T13:43:52;69.88;;;39.95;;
45208;SDS011;30951;43.994;26.260;2023-03-02T13:48:57;27.05;;;18.55;;
45208;SDS011;30951;43.994;26.260;2023-03-02T13:51:24;30.98;;;17.45;;
45208;SDS011;30951;43.994;26.260;2023-03-02T13:53:55;25.13;;;18.38;;
45208;SDS011;30951;43.994;26.260;2023-03-02T13:56:43;27.00;;;17.17;;
45208;SDS011;30951;43.994;26.260;2023-03-02T13:59:12;26.40;;;17.13;;
45208;SDS011;30951;43.994;26.260;2023-03-02T14:01:39;26.63;;;16.50;;
45208;SDS011;30951;43.994;26.260;2023-03-02T14:04:15;31.02;;;18.65;;
45208;SDS011;30951;43.994;26.260;2023-03-02T14:06:47;33.67;;;18.77;;
45208;SDS011;30951;43.994;26.260;2023-03-02T14:09:13;26.42;;;17.33;;
45208;SDS011;30951;43.994;26.260;2023-03-02T14:11:41;30.88;;;18.88;;
45208;SDS011;30951;43.994;26.260;2023-03-02T14:14:11;28.02;;;18.02;;
45208;SDS011;30951;43.994;26.260;2023-03-02T14:16:39;28.88;;;16.45;;
45208;SDS011;30951;43.994;26.260;2023-03-02T14:19:05;29.90;;;18.08;;
45208;SDS011;30951;43.994;26.260;2023-03-02T14:21:32;24.23;;;16.10;;
45208;SDS011;30951;43.994;26.260;2023-03-02T14:23:59;31.95;;;19.05;;
45208;SDS011;30951;43.994;26.260;2023-03-02T14:28:58;30.33;;;18.45;;
45208;SDS011;30951;43.994;26.260;2023-03-02T14:31:25;33.10;;;19.02;;
45208;SDS011;30951;43.994;26.260;2023-03-02T14:33:51;33.53;;;19.38;;
45208;SDS011;30951;43.994;26.260;2023-03-02T14:36:30;30.48;;;17.95;;
45208;SDS011;30951;43.994;26.260;2023-03-02T14:38:57;30.10;;;16.95;;
45208;SDS011;30951;43.994;26.260;2023-03-02T14:41:25;29.27;;;17.50;;
45208;SDS011;30951;43.994;26.260;2023-03-02T14:43:51;29.20;;;18.20;;
45208;SDS011;30951;43.994;26.260;2023-03-02T14:46:17;39.13;;;21.40;;
45208;SDS011;30951;43.994;26.260;2023-03-02T14:48:42;50.47;;;22.98;;
45208;SDS011;30951;43.994;26.260;2023-03-02T14:51:17;46.80;;;25.75;;
45208;SDS011;30951;43.994;26.260;2023-03-02T14:53:46;31.23;;;18.65;;
45208;SDS011;30951;43.994;26.260;2023-03-02T14:56:13;31.45;;;17.90;;
45208;SDS011;30951;43.994;26.260;2023-03-02T14:58:40;32.90;;;19.92;;
45208;SDS011;30951;43.994;26.260;2023-03-02T15:01:05;28.25;;;19.05;;
45208;SDS011;30951;43.994;26.260;2023-03-02T15:03:31;29.95;;;19.20;;
45208;SDS011;30951;43.994;26.260;2023-03-02T15:05:56;33.40;;;18.77;;
45208;SDS011;30951;43.994;26.260;2023-03-02T15:08:22;36.33;;;19.52;;
45208;SDS011;30951;43.994;26.260;2023-03-02T15:10:48;31.90;;;19.13;;
45208;SDS011;30951;43.994;26.260;2023-03-02T15:13:14;29.17;;;17.88;;
45208;SDS011;30951;43.994;26.260;2023-03-02T15:15:40;28.17;;;16.75;;
45208;SDS011;30951;43.994;26.260;2023-03-02T15:18:07;32.42;;;19.05;;
45208;SDS011;30951;43.994;26.260;2023-03-02T15:20:33;28.55;;;18.85;;
45208;SDS011;30951;43.994;26.260;2023-03-02T15:22:58;33.10;;;19.90;;
45208;SDS011;30951;43.994;26.260;2023-03-02T15:25:24;42.67;;;24.75;;
45208;SDS011;30951;43.994;26.260;2023-03-02T15:27:51;32.90;;;18.85;;
45208;SDS011;30951;43.994;26.260;2023-03-02T15:30:17;34.83;;;22.33;;
45208;SDS011;30951;43.994;26.260;2023-03-02T15:32:43;36.67;;;20.52;;
45208;SDS011;30951;43.994;26.260;2023-03-02T15:35:09;36.20;;;20.73;;
45208;SDS011;30951;43.994;26.260;2023-03-02T15:37:36;31.30;;;17.90;;